Terminal Aerodrome Forecast
Issued by NWS Shreveport, LA

Home | Current Version | Previous Version | Text Only | Print | Product List | Glossary On
Versions: 1 2 3 4 5 6 7 8 9 10 11 12 13 14 15 16 17 18 19 20
806
FTUS44 KSHV 192339
TAFMLU
TAF
KMLU 192339Z 2000/2024 13004KT P6SM BKN250
      TEMPO 2012/2015 5SM BR BKN015
     FM201500 17007KT P6SM BKN035
     FM202100 20006KT P6SM VCSH BKN050=

USA.gov is the U.S. government's official web portal to all federal, state and local government web resources and services.